createdAt,value
2019-04-19T00:02:06.324Z,12.10
2019-04-19T00:04:33.831Z,12.10
2019-04-19T00:07:15.515Z,12.00
2019-04-19T00:09:48.046Z,12.00
2019-04-19T00:12:23.173Z,12.00
2019-04-19T00:14:42.331Z,11.90
2019-04-19T00:17:18.990Z,12.00
2019-04-19T00:20:04.348Z,11.90
2019-04-19T00:22:49.875Z,11.90
2019-04-19T00:25:07.699Z,11.80
2019-04-19T00:30:24.083Z,11.90
2019-04-19T00:32:57.089Z,11.80
2019-04-19T00:35:14.311Z,11.80
2019-04-19T00:37:44.897Z,11.80
2019-04-19T00:40:38.241Z,11.80
2019-04-19T00:43:39.169Z,11.80
2019-04-19T00:46:15.805Z,11.80
2019-04-19T00:48:42.306Z,11.60
2019-04-19T00:51:11.115Z,11.60
2019-04-19T00:53:38.601Z,11.60
2019-04-19T00:56:12.795Z,11.50
2019-04-19T00:58:37.430Z,11.50
2019-04-19T01:01:14.295Z,11.40
2019-04-19T01:03:45.353Z,11.40
2019-04-19T01:06:15.405Z,11.30
2019-04-19T01:08:56.330Z,11.30
2019-04-19T01:11:27.418Z,11.30
2019-04-19T01:14:00.958Z,11.20
2019-04-19T01:16:30.989Z,11.20
2019-04-19T01:18:58.056Z,11.10
2019-04-19T01:21:22.119Z,11.30
2019-04-19T01:23:58.588Z,11.20
2019-04-19T01:26:25.640Z,11.20
2019-04-19T01:29:02.621Z,11.00
2019-04-19T01:31:30.578Z,11.10
2019-04-19T01:34:05.010Z,11.00
2019-04-19T01:36:36.340Z,11.00
2019-04-19T01:39:18.023Z,11.10
2019-04-19T01:41:49.344Z,11.00
2019-04-19T01:44:42.583Z,11.00
2019-04-19T01:47:04.257Z,10.90
2019-04-19T01:49:51.514Z,10.90
2019-04-19T01:52:36.806Z,10.90
2019-04-19T01:54:54.358Z,10.90
2019-04-19T01:57:16.050Z,10.80
2019-04-19T01:59:50.864Z,10.80
2019-04-19T02:02:21.303Z,10.70
2019-04-19T02:04:52.092Z,10.80
2019-04-19T02:07:26.077Z,10.60
2019-04-19T02:10:07.627Z,10.60
2019-04-19T02:12:36.767Z,10.60
2019-04-19T02:15:05.806Z,10.50
2019-04-19T02:20:08.702Z,10.50
2019-04-19T02:22:39.530Z,10.40
2019-04-19T02:25:17.420Z,10.40
2019-04-19T02:27:45.548Z,10.30
2019-04-19T02:30:26.950Z,10.20
2019-04-19T02:33:09.446Z,10.20
2019-04-19T02:35:42.303Z,10.40
2019-04-19T02:38:17.192Z,10.40
2019-04-19T02:43:30.242Z,10.10
2019-04-19T02:46:14.503Z,10.00
2019-04-19T02:48:33.697Z,10.10
2019-04-19T02:53:37.734Z,10.10
2019-04-19T02:56:02.697Z,10.00
2019-04-19T02:58:43.092Z,10.00
2019-04-19T03:01:53.557Z,10.00
2019-04-19T03:04:29.980Z,9.90
2019-04-19T03:06:26.563Z,9.90
2019-04-19T03:08:48.210Z,9.90
2019-04-19T03:11:38.531Z,9.90
2019-04-19T03:14:03.266Z,9.70
2019-04-19T03:16:46.829Z,9.80
2019-04-19T03:19:07.386Z,9.80
2019-04-19T03:21:41.773Z,9.60
2019-04-19T03:24:15.364Z,9.60
2019-04-19T03:26:46.061Z,9.50
2019-04-19T03:29:11.153Z,9.50
2019-04-19T03:32:32.071Z,9.40
2019-04-19T03:36:50.383Z,9.40
2019-04-19T03:39:29.810Z,9.40
2019-04-19T03:42:11.798Z,9.40
2019-04-19T03:44:51.066Z,9.30
2019-04-19T03:47:23.315Z,9.30
2019-04-19T03:49:57.436Z,9.40
2019-04-19T03:52:28.421Z,9.40
2019-04-19T03:54:56.072Z,9.40
2019-04-19T03:57:25.293Z,9.30
2019-04-19T03:59:43.716Z,9.30
2019-04-19T04:02:19.984Z,9.40
2019-04-19T04:04:56.151Z,9.30
2019-04-19T04:07:21.950Z,9.20
2019-04-19T04:09:57.044Z,9.20
2019-04-19T04:12:52.660Z,9.20
2019-04-19T04:15:57.015Z,9.30
2019-04-19T04:18:17.443Z,9.20
2019-04-19T04:20:53.817Z,9.10
2019-04-19T04:23:28.113Z,9.10
2019-04-19T04:26:01.131Z,9.10
2019-04-19T04:28:39.577Z,9.00
2019-04-19T04:31:10.007Z,9.10
2019-04-19T04:33:42.349Z,9.10
2019-04-19T04:36:21.157Z,9.00
2019-04-19T04:38:38.387Z,9.00
2019-04-19T04:41:11.185Z,9.00
2019-04-19T04:43:47.829Z,9.00
2019-04-19T04:46:48.683Z,9.00
2019-04-19T04:49:34.456Z,9.00
2019-04-19T04:51:55.816Z,8.90
2019-04-19T04:54:25.680Z,9.00
2019-04-19T05:00:08.042Z,9.00
2019-04-19T05:02:53.705Z,8.90
2019-04-19T05:05:28.936Z,8.90
2019-04-19T05:08:03.163Z,8.90
2019-04-19T05:10:30.752Z,8.90
2019-04-19T05:13:16.620Z,8.90
2019-04-19T05:15:40.358Z,9.00
2019-04-19T05:18:18.267Z,9.00
2019-04-19T05:20:39.625Z,9.00
2019-04-19T05:23:13.493Z,9.10
2019-04-19T05:25:44.457Z,9.00
2019-04-19T05:28:20.234Z,9.00
2019-04-19T05:30:40.263Z,9.00
2019-04-19T05:33:12.955Z,9.10
2019-04-19T05:35:57.278Z,9.10
2019-04-19T05:38:55.992Z,9.10
2019-04-19T05:41:35.209Z,9.20
2019-04-19T05:44:27.013Z,9.20
2019-04-19T05:46:50.175Z,9.40
2019-04-19T05:49:18.237Z,9.50
2019-04-19T05:51:52.084Z,9.40
2019-04-19T05:54:12.395Z,9.50
2019-04-19T05:56:48.387Z,9.60
2019-04-19T05:59:23.207Z,9.70
2019-04-19T06:02:01.490Z,9.70
2019-04-19T06:04:31.387Z,9.80
2019-04-19T06:07:10.918Z,9.90
2019-04-19T06:09:22.409Z,10.00
2019-04-19T06:11:53.367Z,10.30
2019-04-19T06:14:45.076Z,10.50
2019-04-19T06:17:30.801Z,10.90
2019-04-19T06:20:08.366Z,11.20
2019-04-19T06:22:44.474Z,11.60
2019-04-19T06:25:06.423Z,11.90
2019-04-19T06:30:53.496Z,12.40
2019-04-19T06:33:28.183Z,12.90
2019-04-19T06:35:43.650Z,13.20
2019-04-19T06:38:07.516Z,13.20
2019-04-19T06:40:39.328Z,13.40
2019-04-19T06:43:15.887Z,13.60
2019-04-19T06:45:59.709Z,13.50
2019-04-19T06:48:16.605Z,13.90
2019-04-19T06:50:48.830Z,14.20
2019-04-19T06:53:16.874Z,14.50
2019-04-19T06:55:49.828Z,14.50
2019-04-19T06:58:24.333Z,14.20
2019-04-19T07:01:04.885Z,14.60
2019-04-19T07:03:23.644Z,15.20
2019-04-19T07:06:09.233Z,15.20
2019-04-19T07:11:16.294Z,14.90
2019-04-19T07:13:43.930Z,15.60
2019-04-19T07:16:19.340Z,15.90
2019-04-19T07:18:44.956Z,16.70
2019-04-19T07:21:26.342Z,16.80
2019-04-19T07:23:54.540Z,17.10
2019-04-19T07:26:33.540Z,17.60
2019-04-19T07:28:43.587Z,17.80
2019-04-19T07:31:15.156Z,17.70
2019-04-19T07:34:00.582Z,17.90
2019-04-19T07:36:40.048Z,18.40
2019-04-19T07:39:09.717Z,18.60
2019-04-19T07:41:39.824Z,19.00
2019-04-19T07:44:21.373Z,19.30
2019-04-19T07:47:16.239Z,19.30
2019-04-19T07:49:40.515Z,19.40
2019-04-19T07:52:14.707Z,19.90
2019-04-19T07:54:39.462Z,20.20
2019-04-19T07:57:42.182Z,20.40
2019-04-19T08:08:05.663Z,20.30
2019-04-19T08:10:18.575Z,19.90
2019-04-19T08:12:42.641Z,20.50
2019-04-19T08:15:22.128Z,21.00
2019-04-19T08:17:51.832Z,21.50
2019-04-19T08:27:44.883Z,22.70
2019-04-19T08:30:13.400Z,22.90
2019-04-19T08:32:38.534Z,22.80
2019-04-19T08:35:12.422Z,22.70
2019-04-19T08:37:44.993Z,22.40
2019-04-19T08:40:33.502Z,23.00
2019-04-19T08:43:03.399Z,23.10
2019-04-19T08:45:38.214Z,22.90
2019-04-19T08:48:20.190Z,23.90
2019-04-19T08:50:53.110Z,24.30
2019-04-19T08:53:37.026Z,24.30
2019-04-19T08:56:08.872Z,24.00
2019-04-19T08:58:50.065Z,24.60
2019-04-19T09:01:27.396Z,24.50
2019-04-19T09:03:59.641Z,25.00
2019-04-19T09:07:15.856Z,25.30
2019-04-19T09:08:53.616Z,25.30
2019-04-19T09:11:30.921Z,24.90
2019-04-19T09:14:05.861Z,25.60
2019-04-19T09:16:31.746Z,25.60
2019-04-19T09:19:18.430Z,25.70
2019-04-19T09:21:40.866Z,25.40
2019-04-19T09:24:02.812Z,25.40
2019-04-19T09:26:46.300Z,25.90
2019-04-19T09:29:31.007Z,25.90
2019-04-19T09:31:46.220Z,26.00
2019-04-19T09:34:11.670Z,25.50
2019-04-19T09:36:43.471Z,26.30
2019-04-19T09:39:30.504Z,26.80
2019-04-19T09:41:50.079Z,27.40
2019-04-19T09:44:23.313Z,26.60
2019-04-19T09:46:49.262Z,27.10
2019-04-19T09:49:37.921Z,27.40
2019-04-19T09:52:13.446Z,26.90
2019-04-19T09:54:51.719Z,26.40
2019-04-19T09:57:24.249Z,26.90
2019-04-19T09:59:38.801Z,27.60
2019-04-19T10:02:10.949Z,26.50
2019-04-19T10:04:41.982Z,26.20
2019-04-19T10:07:12.222Z,26.20
2019-04-19T10:09:42.885Z,25.80
2019-04-19T10:12:13.789Z,24.70
2019-04-19T10:14:44.049Z,24.40
2019-04-19T10:17:20.912Z,25.10
2019-04-19T10:19:50.936Z,25.80
2019-04-19T10:22:21.226Z,25.60
2019-04-19T10:24:54.100Z,27.30
2019-04-19T10:27:31.333Z,26.20
2019-04-19T10:30:02.193Z,26.70
2019-04-19T10:32:34.909Z,26.50
2019-04-19T10:35:07.456Z,25.30
2019-04-19T10:37:37.838Z,26.70
2019-04-19T10:40:13.352Z,26.40
2019-04-19T10:42:45.074Z,27.20
2019-04-19T10:45:16.305Z,27.40
2019-04-19T10:47:49.457Z,27.20
2019-04-19T10:50:32.649Z,24.40
2019-04-19T10:52:54.348Z,25.10
2019-04-19T10:55:29.645Z,25.10
2019-04-19T10:58:01.129Z,24.30
2019-04-19T11:00:31.926Z,23.60
2019-04-19T11:03:03.158Z,24.50
2019-04-19T11:05:36.694Z,25.80
2019-04-19T11:08:07.684Z,25.40
2019-04-19T11:11:05.521Z,26.40
2019-04-19T11:13:36.039Z,25.80
2019-04-19T11:16:06.888Z,24.80
2019-04-19T11:18:37.331Z,24.70
2019-04-19T11:21:07.783Z,23.60
2019-04-19T11:23:39.783Z,24.10
2019-04-19T11:26:10.566Z,24.70
2019-04-19T11:28:43.028Z,25.60
2019-04-19T11:31:28.122Z,25.00
2019-04-19T11:33:59.278Z,24.50
2019-04-19T11:36:29.554Z,24.60
2019-04-19T11:39:00.823Z,24.80
2019-04-19T11:41:31.359Z,25.70
2019-04-19T11:44:04.061Z,26.40
2019-04-19T11:46:43.161Z,26.30
2019-04-19T11:49:23.371Z,25.90
2019-04-19T11:51:45.905Z,24.90
2019-04-19T11:54:30.432Z,25.40
2019-04-19T11:57:07.451Z,25.10
2019-04-19T12:00:09.482Z,26.80
2019-04-19T12:02:42.177Z,26.00
2019-04-19T12:05:21.100Z,26.20
2019-04-19T12:07:46.928Z,25.90
2019-04-19T12:10:18.641Z,26.30
2019-04-19T12:12:48.908Z,24.90
2019-04-19T12:15:19.877Z,24.50
2019-04-19T12:17:57.865Z,24.30
2019-04-19T12:20:28.982Z,24.80
2019-04-19T12:23:00.067Z,26.00
2019-04-19T12:25:30.410Z,26.60
2019-04-19T12:28:01.608Z,27.00
2019-04-19T12:30:33.622Z,26.30
2019-04-19T12:33:05.630Z,26.00
2019-04-19T12:35:37.095Z,26.00
2019-04-19T12:38:08.121Z,25.70
2019-04-19T12:40:47.764Z,25.20
2019-04-19T12:43:18.993Z,25.80
2019-04-19T12:45:53.502Z,25.80
2019-04-19T12:48:23.729Z,25.50
2019-04-19T12:51:16.405Z,26.00
2019-04-19T12:53:47.932Z,24.70
2019-04-19T12:56:19.960Z,25.20
2019-04-19T12:58:51.459Z,24.80
2019-04-19T13:01:30.104Z,25.10
2019-04-19T13:04:10.684Z,25.60
2019-04-19T13:06:42.440Z,26.10
2019-04-19T13:09:12.947Z,26.10
2019-04-19T13:11:45.064Z,25.00
2019-04-19T13:14:15.364Z,25.90
2019-04-19T13:16:46.297Z,26.50
2019-04-19T13:19:19.411Z,27.00
2019-04-19T13:21:50.266Z,27.10
2019-04-19T13:24:20.681Z,27.00
2019-04-19T13:26:51.397Z,26.80
2019-04-19T13:29:29.421Z,26.80
2019-04-19T13:31:59.510Z,26.60
2019-04-19T13:34:29.775Z,25.80
2019-04-19T13:37:11.260Z,26.40
2019-04-19T13:39:58.471Z,25.90
2019-04-19T13:42:32.915Z,26.20
2019-04-19T13:45:15.031Z,26.00
2019-04-19T13:47:36.390Z,25.90
2019-04-19T13:50:20.724Z,25.70
2019-04-19T13:52:40.157Z,25.40
2019-04-19T13:55:10.672Z,25.60
2019-04-19T13:57:42.067Z,25.70
2019-04-19T14:00:22.515Z,25.60
2019-04-19T14:03:15.065Z,25.40
2019-04-19T14:05:46.371Z,25.70
2019-04-19T14:08:17.454Z,25.20
2019-04-19T14:10:48.913Z,26.30
2019-04-19T14:13:31.319Z,26.00
2019-04-19T14:16:05.046Z,26.70
2019-04-19T14:18:37.030Z,26.90
2019-04-19T14:21:08.562Z,26.60
2019-04-19T14:23:39.675Z,26.00
2019-04-19T14:26:10.285Z,26.20
2019-04-19T14:28:41.241Z,25.50
2019-04-19T14:31:12.336Z,25.20
2019-04-19T14:33:43.225Z,25.50
2019-04-19T14:36:13.900Z,26.20
2019-04-19T14:38:45.611Z,26.70
2019-04-19T14:41:17.629Z,26.40
2019-04-19T14:43:48.194Z,26.40
2019-04-19T14:46:20.599Z,26.60
2019-04-19T14:48:51.046Z,25.80
2019-04-19T14:51:26.728Z,26.20
2019-04-19T14:53:55.827Z,26.50
2019-04-19T14:56:26.146Z,26.80
2019-04-19T14:58:56.080Z,26.50
2019-04-19T15:01:35.200Z,27.00
2019-04-19T15:04:10.854Z,27.20
2019-04-19T15:06:41.835Z,27.10
2019-04-19T15:09:12.037Z,26.90
2019-04-19T15:11:41.881Z,25.70
2019-04-19T15:14:12.355Z,25.30
2019-04-19T15:16:43.013Z,24.80
2019-04-19T15:19:13.015Z,24.80
2019-04-19T15:21:43.933Z,25.10
2019-04-19T15:24:14.740Z,24.60
2019-04-19T15:26:44.939Z,24.80
2019-04-19T15:29:15.024Z,24.80
2019-04-19T15:31:46.193Z,24.90
2019-04-19T15:34:23.669Z,25.00
2019-04-19T15:37:01.913Z,25.30
2019-04-19T15:39:33.847Z,24.90
2019-04-19T15:42:04.288Z,24.80
2019-04-19T15:44:53.320Z,24.70
2019-04-19T15:47:24.291Z,24.60
2019-04-19T15:49:55.737Z,25.00
2019-04-19T15:52:26.247Z,25.10
2019-04-19T15:54:56.354Z,25.30
2019-04-19T15:57:30.278Z,24.90
2019-04-19T16:00:00.357Z,24.70
2019-04-19T16:02:44.199Z,24.30
2019-04-19T16:05:31.888Z,24.60
2019-04-19T16:08:11.575Z,24.50
2019-04-19T16:11:00.502Z,24.60
2019-04-19T16:13:50.179Z,24.80
2019-04-19T16:16:22.887Z,24.70
2019-04-19T16:18:52.173Z,24.60
2019-04-19T16:21:32.766Z,24.50
2019-04-19T16:23:57.356Z,24.20
2019-04-19T16:26:28.598Z,24.00
2019-04-19T16:28:59.880Z,24.10
2019-04-19T16:31:30.633Z,24.00
2019-04-19T16:34:01.855Z,23.50
2019-04-19T16:36:33.460Z,23.60
2019-04-19T16:39:03.311Z,23.40
2019-04-19T16:41:33.169Z,23.30
2019-04-19T16:44:03.244Z,23.20
2019-04-19T16:46:35.146Z,23.10
2019-04-19T16:49:04.548Z,23.00
2019-04-19T16:51:45.268Z,22.90
2019-04-19T16:54:10.183Z,22.90
2019-04-19T16:56:40.177Z,22.80
2019-04-19T16:59:10.185Z,22.80
2019-04-19T17:01:41.053Z,22.80
2019-04-19T17:04:32.401Z,22.60
2019-04-19T17:07:04.686Z,22.50
2019-04-19T17:09:36.382Z,22.30
2019-04-19T17:12:07.555Z,22.40
2019-04-19T17:14:38.960Z,22.40
2019-04-19T17:17:36.266Z,22.30
2019-04-19T17:20:29.822Z,22.30
2019-04-19T17:23:00.909Z,22.10
2019-04-19T17:25:33.002Z,22.00
2019-04-19T17:28:03.051Z,21.90
2019-04-19T17:30:36.254Z,21.80
2019-04-19T17:33:08.213Z,21.80
2019-04-19T17:35:38.406Z,21.80
2019-04-19T17:38:25.008Z,21.80
2019-04-19T17:40:44.873Z,21.70
2019-04-19T17:43:19.385Z,21.40
2019-04-19T17:45:50.628Z,21.40
2019-04-19T17:48:20.722Z,21.50
2019-04-19T17:50:51.531Z,21.50
2019-04-19T17:53:25.287Z,21.40
2019-04-19T17:55:56.381Z,21.20
2019-04-19T17:58:27.488Z,21.20
2019-04-19T18:00:58.057Z,21.20
2019-04-19T18:03:29.097Z,21.00
2019-04-19T18:06:00.259Z,20.80
2019-04-19T18:08:32.584Z,20.70
2019-04-19T18:11:05.413Z,20.60
2019-04-19T18:13:35.416Z,20.60
2019-04-19T18:16:05.308Z,20.70
2019-04-19T18:18:41.371Z,20.40
2019-04-19T18:21:08.289Z,20.30
2019-04-19T18:23:46.293Z,20.40
2019-04-19T18:26:18.141Z,20.30
2019-04-19T18:28:45.637Z,20.00
2019-04-19T18:31:14.861Z,19.90
2019-04-19T18:33:57.138Z,19.80
2019-04-19T18:36:25.306Z,19.80
2019-04-19T18:38:53.844Z,19.80
2019-04-19T18:41:24.998Z,19.70
2019-04-19T18:44:04.656Z,19.60
2019-04-19T18:46:26.911Z,19.50
2019-04-19T18:48:57.874Z,19.60
2019-04-19T18:51:36.551Z,19.50
2019-04-19T18:54:17.053Z,19.50
2019-04-19T18:56:36.193Z,19.40
2019-04-19T18:59:14.133Z,19.20
2019-04-19T19:01:46.046Z,19.10
2019-04-19T19:04:19.044Z,19.00
2019-04-19T19:06:48.863Z,18.90
2019-04-19T19:09:26.586Z,18.90
2019-04-19T19:11:59.056Z,18.90
2019-04-19T19:14:43.593Z,18.80
2019-04-19T19:17:17.133Z,18.60
2019-04-19T19:19:46.062Z,18.70
2019-04-19T19:22:23.280Z,18.50
2019-04-19T19:25:03.068Z,18.40
2019-04-19T19:27:23.518Z,18.50
2019-04-19T19:29:52.251Z,18.40
2019-04-19T19:32:22.515Z,18.30
2019-04-19T19:34:54.610Z,18.30
2019-04-19T19:37:28.164Z,18.20
2019-04-19T19:40:04.600Z,18.20
2019-04-19T19:42:51.608Z,18.10
2019-04-19T19:45:21.658Z,18.10
2019-04-19T19:48:59.587Z,18.00
2019-04-19T19:51:17.586Z,17.80
2019-04-19T19:56:30.267Z,17.60
2019-04-19T19:58:42.447Z,17.50
2019-04-19T20:01:22.179Z,17.40
2019-04-19T20:03:44.274Z,17.30
2019-04-19T20:06:17.455Z,17.20
2019-04-19T20:08:46.436Z,17.20
2019-04-19T20:11:25.761Z,17.10
2019-04-19T20:13:54.637Z,17.00
2019-04-19T20:16:27.033Z,16.90
2019-04-19T20:19:17.233Z,16.90
2019-04-19T20:21:54.103Z,16.70
2019-04-19T20:24:31.832Z,16.60
2019-04-19T20:26:58.449Z,16.50
2019-04-19T20:29:23.848Z,16.40
2019-04-19T20:31:52.348Z,16.40
2019-04-19T20:34:27.485Z,16.40
2019-04-19T20:36:55.493Z,16.30
2019-04-19T20:39:30.080Z,16.20
2019-04-19T20:42:00.862Z,16.10
2019-04-19T20:44:57.701Z,16.10
2019-04-19T20:47:26.074Z,16.00
2019-04-19T20:49:52.855Z,15.90
2019-04-19T20:52:45.505Z,15.70
2019-04-19T20:55:26.769Z,15.60
2019-04-19T20:58:19.217Z,15.60
2019-04-19T21:00:57.012Z,15.50
2019-04-19T21:03:32.920Z,15.50
2019-04-19T21:05:59.890Z,15.40
2019-04-19T21:08:51.019Z,15.30
2019-04-19T21:11:21.410Z,15.30
2019-04-19T21:13:56.765Z,15.20
2019-04-19T21:16:26.831Z,15.10
2019-04-19T21:19:00.177Z,15.10
2019-04-19T21:21:27.384Z,15.00
2019-04-19T21:24:02.319Z,14.90
2019-04-19T21:26:31.754Z,14.90
2019-04-19T21:29:01.358Z,14.90
2019-04-19T21:31:38.423Z,14.80
2019-04-19T21:34:06.915Z,14.80
2019-04-19T21:36:38.875Z,14.80
2019-04-19T21:39:11.386Z,14.70
2019-04-19T21:41:41.842Z,14.50
2019-04-19T21:44:16.881Z,14.50
2019-04-19T21:46:42.281Z,14.40
2019-04-19T21:49:15.854Z,14.40
2019-04-19T21:51:44.075Z,14.40
2019-04-19T21:54:26.432Z,14.30
2019-04-19T21:56:56.526Z,14.20
2019-04-19T21:59:32.527Z,14.20
2019-04-19T22:01:59.357Z,14.10
2019-04-19T22:04:29.763Z,14.10
2019-04-19T22:07:05.691Z,14.00
2019-04-19T22:09:34.450Z,14.00
2019-04-19T22:12:04.527Z,13.90
2019-04-19T22:14:34.402Z,13.70
2019-04-19T22:17:05.465Z,13.70
2019-04-19T22:19:37.492Z,13.60
2019-04-19T22:22:15.383Z,13.50
2019-04-19T22:24:41.176Z,13.60
2019-04-19T22:27:11.634Z,13.60
2019-04-19T22:29:41.825Z,13.60
2019-04-19T22:32:15.270Z,13.50
2019-04-19T22:34:44.338Z,13.40
2019-04-19T22:37:21.655Z,13.30
2019-04-19T22:39:47.953Z,13.20
2019-04-19T22:42:19.164Z,13.20
2019-04-19T22:44:50.359Z,13.30
2019-04-19T22:47:39.728Z,13.10
2019-04-19T22:50:16.235Z,13.10
2019-04-19T22:52:41.181Z,13.10
2019-04-19T22:55:14.991Z,12.90
2019-04-19T22:57:49.230Z,13.00
2019-04-19T23:00:15.936Z,12.90
2019-04-19T23:03:03.416Z,12.90
2019-04-19T23:05:41.328Z,12.70
2019-04-19T23:08:06.254Z,12.80
2019-04-19T23:10:46.302Z,12.80
2019-04-19T23:13:13.338Z,12.80
2019-04-19T23:15:43.938Z,12.70
2019-04-19T23:18:16.681Z,12.60
2019-04-19T23:20:45.540Z,12.40
2019-04-19T23:23:21.734Z,12.40
2019-04-19T23:26:03.677Z,12.40
2019-04-19T23:28:27.173Z,12.40
2019-04-19T23:30:51.688Z,12.40
2019-04-19T23:33:22.859Z,12.20
2019-04-19T23:35:53.355Z,12.10
2019-04-19T23:38:27.338Z,12.20
2019-04-19T23:40:55.177Z,12.20
2019-04-19T23:43:32.151Z,12.10
2019-04-19T23:45:57.775Z,12.10
2019-04-19T23:48:31.719Z,12.20
2019-04-19T23:51:00.052Z,12.00
2019-04-19T23:53:35.907Z,11.90
2019-04-19T23:56:02.563Z,11.90
2019-04-19T23:58:37.207Z,11.80
